Terrington Saint Clement, United Kingdom
Current Conditions -  °F | °C
As of 7:50 PM on Friday 21 Nov 2014 (Local Time) from EGYM Reporting Station
Drizzle Drizzle  
Wind Chill: 42°   Ceiling: 4600
Heat Index: 46°   Visibility: 3mi
Dew Point: 45°   Wind: 8mph
Humidity: 93%   Direction: 100°E
Pressure: 29.97"   Gusts: NA
Location:  52.75°N, 0.3°E
Report Text: EGYM 211950Z AUTO 10007KT 5000 -DZ BKN046/// BKN070/// 08/07 Q1015
Loading
Personal Weather Stations






























Interactive Weather Map New forecast layout! Learn more

10-Day Weather Forecast

Advertisements
Track Severe Weather on mobile